Tiempo atmosférico en la estación meteorológica de Cabo Vilan, A Coruña (50 m.)



Fecha
DESCASC
Temp. máxima en grados centígrados (hora)
DESCASC
Temp. mínima en grados centígrados (hora)
DESCASC
Temp. media en grados centígrados
DESCASC
Racha de viento máxima en m/sg (hora)
DESCASC
Velocidad máxima media en intervalos de 10 minutos(hora)
DESCASC
Precipitaciones diarias en mm
DESCASC
Precipitaciones de 00:00 a 06:00 en mm
DESCASC
Precipitaciones de 06:00 a 12:00 en mm
DESCASC
Precipitaciones de 12:00 a 18:00 en mm
DESCASC
Precipitaciones de 18:00 a 24:00 en mm
DESCASC
06-12-2018 15.1 (15:00) 11.4 (09:20) 13.3 12.5 (23:59) 9.72 (20:30) 0 0 0 0 0
05-12-2018 14.7 (11:10) 12.5 (00:10) 13.6 18.61 (10:50) 13.33 (14:20) 1.3 0 0.1 1.2 0
04-12-2018 15 (14:20) 12.1 (20:20) 13.6 12.5 (23:50) 9.17 (23:50) 0.9 0.8 0.1 0 0
03-12-2018 15.1 (05:40) 13.7 (00:00) 14.4 21.67 (06:20) 15.28 (06:20) 23.8 2 20.3 0.1 1.4
02-12-2018 14.7 (12:20) 13.7 (00:00) 14.2 23.06 (04:20) 15.28 (15:00) 9 0.1 0.2 2.1 6.6
01-12-2018 14.4 (23:50) 12.9 (00:00) 13.6 21.11 (17:00) 15.28 (16:30) 1.2 0 0.5 0.5 0.2
30-11-2018 15 (14:20) 11.3 (00:00) 13.2 15 (22:30) 11.11 (23:20) 0 0 0 0 0
29-11-2018 -- (--) -- (--) -- -- (--) -- (--) -- -- 0 0 0
28-11-2018 13.5 (02:10) 12 (00:00) 12.8 28.06 (21:20) 19.17 (22:00) 22.9 0 0.9 3 19
27-11-2018 14.6 (14:50) 11.7 (00:00) 13.2 20.83 (22:30) 14.17 (23:30) 0 0 0 0 0
26-11-2018 14.4 (14:10) 10.3 (00:00) 12.3 26.11 (02:10) 19.44 (02:00) 0.3 0.3 0 0 0
25-11-2018 10.8 (13:50) 5.9 (00:00) 8.4 19.72 (23:50) 12.78 (23:50) 25.8 0 0 2.5 23.3
24-11-2018 12.1 (03:40) 8.7 (00:00) 10.4 17.5 (19:00) 14.72 (19:00) 99.8 1.5 5.7 84.7 7.9
23-11-2018 13.7 (15:00) 7.8 (00:00) 10.8 15.83 (19:30) 11.39 (16:50) 4.1 2.1 1.2 0 0.8
22-11-2018 12.2 (11:30) 8.7 (00:00) 10.4 18.61 (01:10) 12.22 (01:40) 22.6 9.1 2.8 8.8 1.9
21-11-2018 12.9 (14:00) 8.3 (00:00) 10.6 16.11 (22:50) 11.11 (17:40) 9.5 0.2 4.6 0.2 4.5
20-11-2018 12.5 (00:00) 8.4 (00:00) 10.4 15 (08:00) 12.78 (08:20) 11 8.1 2.9 0 0
19-11-2018 15.3 (15:00) 10.2 (00:00) 12.8 8.61 (00:20) 6.39 (06:20) 1.1 0 0 0 1.1
18-11-2018 15.5 (12:20) 11.8 (00:00) 13.7 14.72 (21:20) 8.06 (20:40) 0.1 0 0 0.1 0
17-11-2018 19.9 (16:10) 13.9 (00:00) 16.9 8.89 (10:50) 6.39 (07:00) 0 0 0 0 0
16-11-2018 20.7 (13:40) 13.8 (00:00) 17.3 9.72 (14:00) 7.22 (14:10) 0 0 0 0 0
15-11-2018 19.2 (13:10) 13.7 (00:00) 16.5 7.78 (23:00) 5.56 (22:50) 0 0 0 0 0
14-11-2018 19 (15:10) 8.9 (00:00) 13.9 9.72 (14:50) 6.67 (14:50) 0 0 0 0 0
13-11-2018 14.2 (13:20) 7.5 (00:00) 10.8 6.39 (06:50) 4.72 (08:40) 0 0 0 0 0
12-11-2018 14.7 (15:50) 9.6 (00:00) 12.2 8.33 (13:50) 6.39 (05:40) 1.7 0 0.5 1.2 0
11-11-2018 14.7 (03:00) 10.7 (00:00) 12.7 19.17 (01:50) 14.44 (02:10) 0.1 0.1 0 0 0
10-11-2018 16.2 (15:20) 12 (00:00) 14.1 21.11 (20:50) 15.56 (20:40) 11 9.1 1.9 0 0

Gráficas

Temp. máximas Temp. mínimas Temp. medias Precipitaciones Rachas de viento máximas Velocidades máximas media en intervalos de 10 minutos

Datos horarios

Fecha y hora oficial Temperatura (ºC) Velocidad del viento (km/h) Dirección del viento Racha (km/h) Dirección de racha Precipitación (mm) Presión (hPa) Tendencia (hPa) Humedad (%)
2018-12-09 23:00:00 10.7 18 Nordeste 29 Nordeste 0 -- -- 85
2018-12-09 22:00:00 10.8 21 Nordeste 30 Nordeste 0 -- -- 83
2018-12-09 21:00:00 11.3 18 Nordeste 33 Nordeste 0 -- -- 81
2018-12-09 20:00:00 11.4 17 Nordeste 33 Nordeste 0 -- -- 80
2018-12-09 19:00:00 11.9 25 Nordeste 35 Nordeste 0 -- -- 80
2018-12-09 18:00:00 11.9 28 Nordeste 35 Nordeste 0 -- -- 78
2018-12-09 17:00:00 12.3 23 Nordeste 27 Nordeste 0 -- -- 77
2018-12-09 16:00:00 12.7 19 Nordeste 24 Nordeste 0 -- -- 76
2018-12-09 15:00:00 13 15 Nordeste 19 Nordeste 0 -- -- 75
2018-12-09 14:00:00 13.1 11 Nordeste 16 Nordeste 0 -- -- 74
2018-12-09 13:00:00 13.4 9 Nordeste 15 Nordeste 0 -- -- 74
2018-12-09 12:00:00 13.2 12 Nordeste 21 Nordeste 0 -- -- 77
2018-12-09 11:00:00 11.9 9 Nordeste 18 Norte 0 -- -- 84
2018-12-09 10:00:00 11.8 14 Nordeste 20 Nordeste 0 -- -- 87
2018-12-09 09:00:00 11.5 10 Norte 19 Norte 0 -- -- 91
2018-12-09 08:00:00 11.6 13 Norte 19 Noroeste 0 -- -- 96
2018-12-09 07:00:00 11.7 8 Oeste 14 Oeste 0 -- -- 96
2018-12-09 06:00:00 12.1 9 Oeste 17 Oeste 0 -- -- 96
2018-12-09 05:00:00 12.3 13 Oeste 19 Oeste 0 -- -- 96
2018-12-09 04:00:00 12.7 13 Sudoeste 32 Sudoeste 0.4 -- -- 96
2018-12-09 03:00:00 12.7 13 Sur 22 Sur 0.7 -- -- 96
2018-12-09 02:00:00 12.8 17 Sur 27 Sur 0.1 -- -- 96
2018-12-09 01:00:00 12.8 19 Sur 28 Sur 0.1 -- -- 96
2018-12-09 00:00:00 13 20 Sur 28 Sur 0 -- -- 96
2018-12-08 23:00:00 13 23 Sur 28 Sur 0.2 -- -- 96
2018-12-08 22:00:00 12.9 21 Sur 29 Sur 0.2 -- -- 96
2018-12-08 21:00:00 12.8 24 Sur 32 Sur 0.1 -- -- 94
2018-12-08 20:00:00 12.5 26 Sur 35 Sur 0.1 -- -- 94
2018-12-08 19:00:00 12.1 22 Sur 38 Sudoeste 0 -- -- 94
2018-12-08 18:00:00 12.2 29 Sudoeste 43 Sur 0 -- -- 91
2018-12-08 17:00:00 12.7 30 Sudoeste 47 Sudoeste 0 -- -- 81
2018-12-08 16:00:00 13 27 Sudoeste 40 Sudoeste 0 -- -- 77
2018-12-08 15:00:00 14 32 Sudoeste 41 Sudoeste 0 -- -- 74
2018-12-08 14:00:00 14 35 Sudoeste 43 Sudoeste 0 -- -- 72
2018-12-08 13:00:00 13.7 32 Sudoeste 41 Sudoeste 0 -- -- 72
2018-12-08 12:00:00 13 31 Sudoeste 39 Sudoeste 0 -- -- 79
2018-12-08 11:00:00 12.4 27 Sudoeste 35 Sudoeste 0 -- -- 87
2018-12-08 10:00:00 11.7 22 Sudoeste 31 Sudoeste 0 -- -- 89
2018-12-08 09:00:00 10.8 19 Sur 24 Sur 0 -- -- 89
2018-12-08 08:00:00 9.8 16 Sur 20 Sur 0 -- -- 89
2018-12-08 07:00:00 10.1 15 Sur 22 Sur 0 -- -- 87
2018-12-08 06:00:00 10.1 14 Sur 22 Sur 0 -- -- 86
2018-12-08 05:00:00 10.2 15 Sur 20 Sudoeste 0 -- -- 84
2018-12-08 04:00:00 10.3 13 Sur 15 Sur 0 -- -- 80
2018-12-08 03:00:00 10.6 7 Sudoeste 14 Oeste 0 -- -- 80
2018-12-08 02:00:00 10.8 8 Sudoeste 13 Sudoeste 0 -- -- 79
2018-12-08 01:00:00 11 6 Sur 8 Sudoeste 0 -- -- 79
2018-12-08 00:00:00 10.8 5 Sudoeste 13 Oeste 0 -- -- 79
2018-12-07 23:00:00 11.1 5 Sudoeste 11 Oeste 0 -- -- 79
2018-12-07 22:00:00 11.3 8 Noroeste 15 Noroeste 0 -- -- 79
2018-12-07 21:00:00 10.8 9 Noroeste 15 Noroeste 0 -- -- 78
2018-12-07 20:00:00 11.4 11 Noroeste 18 Oeste 0 -- -- 76
2018-12-07 19:00:00 11 11 Noroeste 19 Noroeste 0 -- -- 74
2018-12-07 18:00:00 11.2 15 Noroeste 24 Oeste 0 -- -- 71
2018-12-07 17:00:00 12.5 19 Noroeste 30 Noroeste 0 -- -- 77
2018-12-07 16:00:00 13.2 18 Oeste 28 Noroeste 0 -- -- 87
2018-12-07 15:00:00 13.7 21 Oeste 31 Oeste 0 -- -- 94
2018-12-07 14:00:00 13 28 Oeste 36 Oeste 0 -- -- 97
2018-12-07 13:00:00 13.2 27 Oeste 41 Sudoeste 0 -- -- 97
2018-12-07 12:00:00 13.8 31 Sudoeste 49 Sudoeste 0.4 -- -- 97
2018-12-07 11:00:00 13.5 39 Sudoeste 54 Sudoeste 0.7 -- -- 97
2018-12-07 10:00:00 13.3 38 Sudoeste 56 Sudoeste 0.6 -- -- 96
2018-12-07 09:00:00 13.5 45 Sudoeste 62 Sudoeste 0.1 -- -- 94
2018-12-07 08:00:00 13.9 42 Sudoeste 58 Sudoeste 0 -- -- 94
2018-12-07 07:00:00 13.6 42 Sudoeste 60 Sudoeste 0 -- -- 94
2018-12-07 06:00:00 13.6 43 Sudoeste 57 Sudoeste 0 -- -- 94
2018-12-07 05:00:00 13.5 43 Sudoeste 55 Sudoeste 0 -- -- 96
2018-12-07 04:00:00 12.9 33 Sur 51 Sudoeste 0.1 -- -- 96
2018-12-07 03:00:00 12.8 36 Sudoeste 51 Sur 0.1 -- -- 96
2018-12-07 02:00:00 12.3 28 Sur 48 Sur 0 -- -- 96
2018-12-07 01:00:00 12.3 35 Sudoeste 47 Sudoeste 0 -- -- 94
2018-12-07 00:00:00 12.1 35 Sudoeste 45 Sudoeste 0 -- -- 94
2018-12-06 23:00:00 12.4 31 Sudoeste 41 Sudoeste 0 -- -- 92
2018-12-06 22:00:00 12.4 24 Sur 37 Sudoeste 0 -- -- 91
2018-12-06 21:00:00 12.3 29 Sudoeste 44 Sudoeste 0 -- -- 91
2018-12-06 20:00:00 12.6 28 Sudoeste 36 Sudoeste 0 -- -- 93
2018-12-06 19:00:00 13 23 Sudoeste 32 Sudoeste 0 -- -- 92
2018-12-06 18:00:00 13 20 Sudoeste 31 Sudoeste 0 -- -- 90
2018-12-06 17:00:00 14 26 Sudoeste 32 Sudoeste 0 -- -- 87
2018-12-06 16:00:00 14.6 25 Sudoeste 33 Sudoeste 0 -- -- 86
2018-12-06 15:00:00 15 25 Sudoeste 35 Sudoeste 0 -- -- 87
2018-12-06 14:00:00 14.5 27 Sudoeste 35 Sudoeste 0 -- -- 87
2018-12-06 13:00:00 14.7 25 Sudoeste 36 Sudoeste 0 -- -- 90
2018-12-06 12:00:00 13.7 27 Sudoeste 36 Sudoeste 0 -- -- 94
2018-12-06 11:00:00 12.9 24 Sudoeste 33 Sudoeste 0 -- -- 96
2018-12-06 10:00:00 11.8 19 Sur 25 Sur 0 -- -- 96
2018-12-06 09:00:00 11.6 20 Sur 28 Sudoeste 0 -- -- 96
2018-12-06 08:00:00 12 21 Sudoeste 26 Sur 0 -- -- 96
2018-12-06 07:00:00 12.4 18 Sudoeste 24 Sudoeste 0 -- -- 96
2018-12-06 06:00:00 12.8 19 Sudoeste 27 Sudoeste 0 -- -- 96
2018-12-06 05:00:00 12.7 21 Sudoeste 28 Sudoeste 0 -- -- 96
2018-12-06 04:00:00 12.8 21 Sudoeste 29 Sudoeste 0 -- -- 96
2018-12-06 03:00:00 13.1 24 Sudoeste 34 Sudoeste 0 -- -- 96
2018-12-06 02:00:00 12.9 25 Sudoeste 32 Sudoeste 0 -- -- 96
2018-12-06 01:00:00 12.6 20 Sudoeste 29 Sudoeste 0 -- -- 96
2018-12-06 00:00:00 13.2 22 Sudoeste 30 Sudoeste 0 -- -- 96
2018-12-05 23:00:00 12.9 22 Sudoeste 27 Sudoeste 0 -- -- 96
2018-12-05 22:00:00 13 21 Sudoeste 27 Sudoeste 0 -- -- 96
2018-12-05 21:00:00 13.2 21 Sudoeste 26 Sudoeste 0 -- -- 96
2018-12-05 20:00:00 13.4 23 Sudoeste 37 Sudoeste 0 -- -- 96
2018-12-05 19:00:00 14.1 28 Sudoeste 44 Sudoeste 0 -- -- 96
2018-12-05 18:00:00 13.9 35 Sudoeste 46 Sudoeste 0 -- -- 96
2018-12-05 17:00:00 14.3 33 Sudoeste 42 Sudoeste 0 -- -- 96
2018-12-05 16:00:00 14.5 32 Sudoeste 54 Sur 0.4 -- -- 96
2018-12-05 15:00:00 14.3 38 Sudoeste 64 Sudoeste 0.1 -- -- 96
2018-12-05 14:00:00 14.5 44 Sudoeste 67 Sur 0 -- -- 94
2018-12-05 13:00:00 14.2 45 Sur 65 Sur 0.7 -- -- 94
2018-12-05 12:00:00 14.2 46 Sur 66 Sur 0.1 -- -- 90
2018-12-05 11:00:00 14.4 44 Sur 67 Sur 0 -- -- 85
2018-12-05 10:00:00 14 42 Sur 65 Sur 0 -- -- 85
2018-12-05 09:00:00 13.9 45 Sur 63 Sur 0 -- -- 85
2018-12-05 08:00:00 13.3 36 Sur 60 Sur 0 -- -- 85
2018-12-05 07:00:00 13.5 37 Sur 54 Sur 0 -- -- 85
2018-12-05 06:00:00 13.4 37 Sur 50 Sur 0 -- -- 85
2018-12-05 05:00:00 13.2 35 Sur 51 Sur 0 -- -- 90
2018-12-05 04:00:00 13.1 33 Sur 50 Sur 0 -- -- 91
2018-12-05 03:00:00 13.2 32 Sur 50 Sur 0 -- -- 92
2018-12-05 02:00:00 13.2 32 Sur 48 Sur 0 -- -- 92
2018-12-05 01:00:00 13 29 Sur 50 Sur 0 -- -- 92
2018-12-05 00:00:00 12.6 32 Sur 45 Sur 0 -- -- 92
2018-12-04 23:00:00 12.3 28 Sur 37 Sur 0 -- -- 92
2018-12-04 22:00:00 12.4 28 Sur 39 Sur 0 -- -- 91
2018-12-04 21:00:00 12.2 24 Sur 35 Sur 0 -- -- 91
2018-12-04 20:00:00 12.2 26 Sur 37 Sur 0 -- -- 90
2018-12-04 19:00:00 12.4 27 Sur 39 Sur 0 -- -- 91
2018-12-04 18:00:00 12.5 28 Sur 38 Sur 0 -- -- 90
2018-12-04 17:00:00 13.2 21 Sur 37 Sur 0 -- -- 89
2018-12-04 16:00:00 14.2 26 Sur 39 Sur 0 -- -- 89
2018-12-04 15:00:00 14.1 26 Sur 36 Sur 0 -- -- 90
2018-12-04 14:00:00 14.7 27 Sur 41 Sur 0 -- -- 97
2018-12-04 13:00:00 13.8 30 Sur 39 Sur 0 -- -- 97
2018-12-04 12:00:00 13.6 26 Sur 37 Sur 0 -- -- 96
2018-12-04 11:00:00 13.5 18 Sur 26 Sur 0 -- -- 97
2018-12-04 10:00:00 13.3 18 Sur 26 Sur 0 -- -- 97
2018-12-04 09:00:00 13.2 18 Sur 25 Sur 0 -- -- 97
2018-12-04 08:00:00 13.2 14 Sur 21 Sur 0 -- -- 96
2018-12-04 07:00:00 13.2 14 Sur 23 Sur 0.1 -- -- 97
2018-12-04 06:00:00 13.2 16 Sur 22 Sur 0 -- -- 97
2018-12-04 05:00:00 13.4 15 Sur 25 Sur 0.2 -- -- 97
2018-12-04 04:00:00 13.4 18 Sur 30 Sur 0.1 -- -- 96
2018-12-04 03:00:00 13.6 19 Sur 30 Sur 0.3 -- -- 97
2018-12-04 02:00:00 13.6 21 Sur 30 Sur 0.1 -- -- 97
2018-12-04 01:00:00 13.7 20 Sur 31 Sur 0.1 -- -- 97
2018-12-04 00:00:00 13.8 25 Sur 35 Sur 0.6 -- -- 97
2018-12-03 23:00:00 14.1 21 Sur 27 Sur 0.8 -- -- 97
2018-12-03 22:00:00 14.6 18 Sur 33 Sudoeste 0 -- -- 97
2018-12-03 21:00:00 14.6 23 Sudoeste 30 Sur 0 -- -- 97
2018-12-03 20:00:00 14.7 17 Sur 29 Sur 0 -- -- 97
2018-12-03 19:00:00 14.6 21 Sudoeste 34 Sudoeste 0 -- -- 97
2018-12-03 18:00:00 14.6 23 Sudoeste 37 Sudoeste 0 -- -- 97
2018-12-03 17:00:00 14.7 25 Sudoeste 38 Sudoeste 0 -- -- 97
2018-12-03 16:00:00 14.6 30 Sudoeste 38 Sudoeste 0 -- -- 96
2018-12-03 15:00:00 14.8 31 Sudoeste 38 Sudoeste 0 -- -- 97
2018-12-03 14:00:00 14.5 31 Sudoeste 41 Sudoeste 0 -- -- 97
2018-12-03 13:00:00 14.6 33 Sudoeste 46 Sudoeste 0.1 -- -- 96
2018-12-03 12:00:00 14.5 34 Sudoeste 51 Sudoeste 0 -- -- 97
2018-12-03 11:00:00 14.6 37 Sudoeste 51 Sudoeste 0.3 -- -- 97
2018-12-03 10:00:00 14.6 42 Sudoeste 59 Sudoeste 5.4 -- -- 97
2018-12-03 09:00:00 14.7 47 Sudoeste 64 Sudoeste 0.6 -- -- 96
2018-12-03 08:00:00 14.5 43 Sudoeste 73 Sudoeste 10.2 -- -- 97
2018-12-03 07:00:00 14.7 50 Sudoeste 78 Sudoeste 3.8 -- -- 97
2018-12-03 06:00:00 15 44 Sudoeste 66 Sur 0.2 -- -- 97
2018-12-03 05:00:00 14.9 43 Sudoeste 60 Sudoeste 0.5 -- -- 96
2018-12-03 04:00:00 14.7 46 Sudoeste 62 Sudoeste 0.1 -- -- 97
2018-12-03 03:00:00 14.7 47 Sudoeste 63 Sudoeste 0.2 -- -- 97
2018-12-03 02:00:00 14.7 46 Sudoeste 65 Sur 0.5 -- -- 97
2018-12-03 01:00:00 14.6 46 Sudoeste 62 Sudoeste 0.5 -- -- 97
2018-12-03 00:00:00 14.6 45 Sudoeste 62 Sudoeste 0.4 -- -- 97
2018-12-02 23:00:00 14.6 49 Sudoeste 67 Sudoeste 0.1 -- -- 97
2018-12-02 22:00:00 14.7 51 Sudoeste 69 Sudoeste 0.3 -- -- 97
2018-12-02 21:00:00 14.5 48 Sudoeste 76 Sudoeste 1 -- -- 96
2018-12-02 20:00:00 14.5 48 Sudoeste 71 Sudoeste 3.2 -- -- 96
2018-12-02 19:00:00 14.5 51 Sur 78 Sur 1.6 -- -- 96
2018-12-02 18:00:00 14.5 51 Sur 72 Sur 0.6 -- -- 96
2018-12-02 17:00:00 14.4 49 Sudoeste 77 Sur 0.6 -- -- 96
2018-12-02 16:00:00 14.5 55 Sur 73 Sur 0.2 -- -- 96
2018-12-02 15:00:00 14.5 55 Sur 79 Sur 0.4 -- -- 96
2018-12-02 14:00:00 14.3 53 Sur 72 Sur 0.2 -- -- 96
2018-12-02 13:00:00 14.4 50 Sur 72 Sur 0.1 -- -- 94
2018-12-02 12:00:00 14.6 49 Sur 70 Sudoeste 0 -- -- 94
2018-12-02 11:00:00 14.4 49 Sur 68 Sudoeste 0 -- -- 94
2018-12-02 10:00:00 14.2 50 Sur 71 Sur 0 -- -- 94
2018-12-02 09:00:00 13.9 47 Sur 66 Sur 0 -- -- 94
2018-12-02 08:00:00 13.8 47 Sur 73 Sudoeste 0.1 -- -- 94
2018-12-02 07:00:00 14.4 50 Sur 76 Sur 0.1 -- -- 93
2018-12-02 06:00:00 14.4 50 Sudoeste 69 Sudoeste 0 -- -- 93
2018-12-02 05:00:00 14.2 48 Sur 83 Sudoeste 0 -- -- 93
2018-12-02 04:00:00 14.1 48 Sudoeste 72 Sur 0.1 -- -- 93
2018-12-02 03:00:00 14.4 48 Sudoeste 70 Sur 0 -- -- 92
2018-12-02 02:00:00 14.4 48 Sudoeste 69 Sudoeste 0 -- -- 92
2018-12-02 01:00:00 14.4 49 Sur 71 Sur 0 -- -- 91
2018-12-02 00:00:00 14.3 44 Sur 68 Sur 0 -- -- 89
2018-12-01 23:00:00 14.1 48 Sudoeste 71 Sudoeste 0 -- -- 94
2018-12-01 22:00:00 13.8 46 Sudoeste 74 Sur 0.1 -- -- 96
2018-12-01 21:00:00 14 46 Sudoeste 63 Sudoeste 0.1 -- -- 96
2018-12-01 20:00:00 13.9 49 Sudoeste 71 Sur 0 -- -- 96
2018-12-01 19:00:00 13.8 45 Sudoeste 66 Sudoeste 0 -- -- 96
2018-12-01 18:00:00 13.9 48 Sudoeste 76 Sudoeste 0 -- -- 96
2018-12-01 17:00:00 13.8 53 Sur 76 Sur 0 -- -- 96
2018-12-01 16:00:00 13.8 52 Sur 68 Sur 0 -- -- 96
2018-12-01 15:00:00 13.5 51 Sur 72 Sur 0.2 -- -- 96
2018-12-01 14:00:00 13.6 48 Sudoeste 66 Sur 0.2 -- -- 96
2018-12-01 13:00:00 13.7 48 Sudoeste 73 Sur 0.1 -- -- 96
2018-12-01 12:00:00 13.6 47 Sudoeste 67 Sudoeste 0 -- -- 96
2018-12-01 11:00:00 13.5 46 Sudoeste 63 Sur 0.4 -- -- 96
2018-12-01 10:00:00 13.4 45 Sudoeste 69 Sudoeste 0 -- -- 94
2018-12-01 09:00:00 13.6 44 Sudoeste 64 Sur 0 -- -- 94
2018-12-01 08:00:00 13.4 44 Sudoeste 64 Sudoeste 0.1 -- -- 93
2018-12-01 07:00:00 13.4 46 Sudoeste 68 Sudoeste 0 -- -- 92
2018-12-01 06:00:00 13.5 51 Sudoeste 68 Sudoeste 0 -- -- 91
2018-12-01 05:00:00 13.5 46 Sudoeste 67 Sudoeste 0 -- -- 90
2018-12-01 04:00:00 13.3 45 Sudoeste 64 Sur 0 -- -- 90
2018-12-01 03:00:00 13.2 40 Sudoeste 65 Sur 0 -- -- 89
2018-12-01 02:00:00 13.1 42 Sudoeste 62 Sudoeste 0 -- -- 88
2018-12-01 01:00:00 13 38 Sudoeste 52 Sudoeste 0 -- -- 88
2018-12-01 00:00:00 12.9 36 Sudoeste 53 Sudoeste 0 -- -- 88
2018-11-30 23:00:00 12.9 39 Sudoeste 54 Sudoeste 0 -- -- 87
2018-11-30 22:00:00 12.7 37 Sudoeste 51 Sudoeste 0 -- -- 87
2018-11-30 21:00:00 12.4 35 Sudoeste 46 Sudoeste 0 -- -- 88
2018-11-30 20:00:00 12.3 30 Sudoeste 39 Sudoeste 0 -- -- 89
2018-11-30 19:00:00 12.3 28 Sudoeste 39 Sudoeste 0 -- -- 88
2018-11-30 18:00:00 12.4 28 Sudoeste 36 Sudoeste 0 -- -- 87
2018-11-30 17:00:00 12.7 25 Sudoeste 36 Sudoeste 0 -- -- 84
2018-11-30 16:00:00 13.6 24 Sudoeste 32 Sudoeste 0 -- -- 80
2018-11-30 15:00:00 14.4 25 Sudoeste 31 Sudoeste 0 -- -- 77
2018-11-30 14:00:00 14.7 25 Sudoeste 31 Sudoeste 0 -- -- 76
2018-11-30 13:00:00 14.4 24 Sudoeste 29 Sudoeste 0 -- -- 80
2018-11-30 12:00:00 13.7 22 Sudoeste 28 Sudoeste 0 -- -- 83
2018-11-30 11:00:00 12.9 20 Sudoeste 29 Sudoeste 0 -- -- 86
2018-11-30 10:00:00 12 18 Sudoeste 28 Sudoeste 0 -- -- 89
2018-11-30 09:00:00 11.7 22 Oeste 32 Sudoeste 0 -- -- 89
2018-11-30 08:00:00 11.4 18 Sudoeste 36 Oeste 0 -- -- 91
2018-11-30 07:00:00 12.2 24 Sudoeste 33 Sudoeste 0 -- -- 90
2018-11-30 06:00:00 11.8 23 Sudoeste 36 Sudoeste 0 -- -- 90
2018-11-30 05:00:00 11.8 28 Sudoeste 37 Oeste 0 -- -- 89
2018-11-30 04:00:00 11.9 24 Sudoeste 35 Oeste 0 -- -- 89
2018-11-30 03:00:00 12 26 Sudoeste 32 Sudoeste 0 -- -- 90
2018-11-30 02:00:00 11.9 26 Sudoeste 35 Sudoeste 0 -- -- 90
2018-11-30 01:00:00 11.6 29 Sudoeste 42 Sudoeste 0 -- -- 84
2018-11-30 00:00:00 12.1 25 Sudoeste 32 Sudoeste 0 -- -- 91
2018-11-29 23:00:00 11.5 20 Sudoeste 45 Sudoeste 0 -- -- 89
2018-11-29 22:00:00 12.5 25 Sudoeste 37 Sudoeste 0 -- -- 92
2018-11-29 21:00:00 12.2 27 Sudoeste 35 Sudoeste 0 -- -- 92
2018-11-29 20:00:00 12.1 27 Sudoeste 35 Sudoeste 0 -- -- 91
2018-11-29 19:00:00 12.2 26 Sudoeste 32 Sudoeste 0 -- -- 93
2018-11-29 18:00:00 12.3 25 Sudoeste 36 Sudoeste 0 -- -- 92
2018-11-29 17:00:00 13.3 22 Sudoeste 34 Sudoeste 0 -- -- 91
2018-11-29 16:00:00 14.3 27 Sudoeste 35 Sudoeste 0 -- -- 89
2018-11-29 15:00:00 14.7 27 Sudoeste 37 Sudoeste 0 -- -- 89
2018-11-29 14:00:00 14.7 30 Sudoeste 46 Sudoeste 0 -- -- 90
2018-11-29 13:00:00 13.7 36 Sudoeste 52 Sudoeste 0 -- -- 94
2018-11-29 12:00:00 13.5 35 Sudoeste 45 Sudoeste 0 -- -- 96
2018-11-29 11:00:00 12.9 33 Sudoeste 45 Sudoeste 0 -- -- 96
2018-11-29 10:00:00 12.7 32 Sudoeste 44 Sudoeste 0 -- -- 96
2018-11-29 09:00:00 12.4 33 Sudoeste 43 Sudoeste 0 -- -- 96
2018-11-29 08:00:00 12.3 35 Sudoeste 44 Sudoeste 0 -- -- 97
2018-11-29 07:00:00 12.5 33 Sudoeste -- -- -- -- -- 96
2018-11-29 06:00:00 -- -- -- -- -- -- -- -- --
2018-11-29 05:00:00 -- -- -- -- -- -- -- -- --
2018-11-29 04:00:00 -- -- -- -- -- -- -- -- --
2018-11-29 03:00:00 -- -- -- -- -- -- -- -- --
2018-11-29 02:00:00 -- -- -- -- -- -- -- -- --
2018-11-29 01:00:00 12.3 63 Sur 102 Sur 1 -- -- 97
2018-11-29 00:00:00 12.3 68 Sur 98 Sur 5.5 -- -- 97
2018-11-28 23:00:00 12.5 68 Sur 100 Sur 0.1 -- -- 97
2018-11-28 22:00:00 12.1 69 Sur 101 Sur 0.6 -- -- 97
2018-11-28 21:00:00 12.3 61 Sur 93 Sur 4.6 -- -- 96
2018-11-28 14:00:00 12.3 53 Sur 84 Sur 0.7 -- -- 94
2018-11-28 13:00:00 12.3 54 Sur 81 Sur 0.3 -- -- 94
2018-11-28 12:00:00 12.2 53 Sur 78 Sudoeste 0.6 -- -- 94
2018-11-28 11:00:00 12.2 49 Sur 76 Sur 0.2 -- -- 94
2018-11-28 10:00:00 12.3 53 Sur 81 Sur 0.1 -- -- 93
2018-11-28 09:00:00 12.4 51 Sur 79 Sur 0 -- -- 92
2018-11-28 08:00:00 12.8 49 Sur 87 Sur 0 -- -- 87
2018-11-28 07:00:00 13 50 Sur 78 Sur 0 -- -- 87
2018-11-28 06:00:00 13 55 Sur 81 Sur 0 -- -- 87
2018-11-28 05:00:00 13.1 53 Sur 76 Sur 0 -- -- 87
2018-11-28 04:00:00 13.2 54 Sur 79 Sur 0 -- -- 86
2018-11-28 03:00:00 13.4 52 Sur 78 Sur 0 -- -- 86
2018-11-28 02:00:00 13.4 51 Sur 73 Sur 0 -- -- 87
2018-11-28 01:00:00 13.2 50 Sur 74 Sur 0 -- -- 88
2018-11-28 00:00:00 13.1 47 Sur 75 Sur 0 -- -- 88
2018-11-27 23:00:00 13.2 48 Sur 75 Sur 0 -- -- 87
2018-11-27 22:00:00 13 48 Sur 72 Sur 0 -- -- 87
2018-11-27 21:00:00 13.1 42 Sur 61 Sur 0 -- -- 90
2018-11-27 20:00:00 13 43 Sur 64 Sur 0 -- -- 90
2018-11-27 19:00:00 13 46 Sur 67 Sur 0 -- -- 89
2018-11-27 18:00:00 13.2 44 Sur 64 Sur 0 -- -- 88
2018-11-27 17:00:00 13.4 37 Sur 64 Sur 0 -- -- 86
2018-11-27 16:00:00 13.8 45 Sur 66 Sur 0 -- -- 83
2018-11-27 15:00:00 14.1 42 Sudoeste 61 Sudoeste 0 -- -- 83
2018-11-27 14:00:00 13.6 41 Sur 60 Sur 0 -- -- 89
2018-11-27 13:00:00 13 39 Sur 62 Sur 0 -- -- 90
2018-11-27 12:00:00 13.2 38 Sur 66 Sur 0 -- -- 89
2018-11-27 11:00:00 13.1 39 Sur 53 Sudoeste 0 -- -- 90
2018-11-27 10:00:00 12.8 37 Sur 54 Sur 0 -- -- 92
2018-11-27 09:00:00 12.4 39 Sur 57 Sur 0 -- -- 92
2018-11-27 08:00:00 12.3 42 Sur 55 Sur 0 -- -- 92
2018-11-27 07:00:00 12.2 39 Sur 54 Sur 0 -- -- 92
2018-11-27 06:00:00 12.4 32 Sur 53 Sur 0 -- -- 89
2018-11-27 05:00:00 12.5 36 Sur 52 Sudoeste 0 -- -- 89
2018-11-27 04:00:00 12.2 33 Sur 46 Sur 0 -- -- 89
2018-11-27 03:00:00 12 30 Sur 46 Sudoeste 0 -- -- 89
2018-11-27 02:00:00 12.1 35 Sur 44 Sur 0 -- -- 88
2018-11-27 01:00:00 12 31 Sur 40 Sur 0 -- -- 88
2018-11-27 00:00:00 11.7 27 Sur 40 Sur 0 -- -- 88
2018-11-26 23:00:00 11.2 22 Sur 34 Sur 0 -- -- 87
2018-11-26 22:00:00 10.9 22 Sur 32 Sur 0 -- -- 85
2018-11-26 21:00:00 10.7 21 Sur 28 Sur 0 -- -- 84
2018-11-26 20:00:00 11 19 Sur 25 Sur 0 -- -- 81
2018-11-26 19:00:00 10.6 18 Sur 23 Sur 0 -- -- 82
2018-11-26 18:00:00 11 15 Sur 22 Sudoeste 0 -- -- 79
2018-11-26 17:00:00 12.4 18 Sudoeste 22 Sudoeste 0 -- -- 70
2018-11-26 16:00:00 13.5 17 Sudoeste 21 Sudoeste 0 -- -- 64
2018-11-26 15:00:00 14 13 Oeste 18 Oeste 0 -- -- 61
2018-11-26 14:00:00 14.1 10 Sudoeste 15 Sudoeste 0 -- -- 64
2018-11-26 13:00:00 13.4 10 Noroeste 19 Noroeste 0 -- -- 68
2018-11-26 12:00:00 11.9 13 Noroeste 23 Norte 0 -- -- 73
2018-11-26 11:00:00 11.6 18 Norte 32 Norte 0 -- -- 81
2018-11-26 10:00:00 10.8 23 Norte 33 Noroeste 0 -- -- 86
2018-11-26 09:00:00 10.9 24 Norte 38 Norte 0 -- -- 86
2018-11-26 08:00:00 11.2 27 Norte 39 Norte 0 -- -- 87
2018-11-26 07:00:00 11 33 Norte 45 Norte 0 -- -- 87
2018-11-26 06:00:00 10.8 39 Norte 56 Noroeste 0 -- -- 86
2018-11-26 05:00:00 11.1 39 Noroeste 57 Noroeste 0 -- -- 87
2018-11-26 04:00:00 11.2 30 Norte 50 Noroeste 0 -- -- 93
2018-11-26 03:00:00 11.6 45 Noroeste 94 Oeste 0 -- -- 93
2018-11-26 02:00:00 11.2 70 Oeste 91 Oeste 0.1 -- -- 92
2018-11-26 01:00:00 11 55 Oeste 81 Oeste 0.2 -- -- 93
2018-11-26 00:00:00 10.3 37 Oeste 71 Oeste 0.1 -- -- 84
2018-11-25 23:00:00 10.2 39 Noroeste 59 Noroeste 2.3 -- -- 93
2018-11-25 22:00:00 8.3 10 Sudoeste 23 Oeste 0.1 -- -- 94
2018-11-25 21:00:00 7.8 7 Nordeste 55 Noroeste 16.8 -- -- 94
2018-11-25 20:00:00 7.5 13 Este 23 Este 0.4 -- -- 93
2018-11-25 19:00:00 7.8 14 Sudeste 22 Este 3.6 -- -- 92
2018-11-25 18:00:00 8.1 12 Sudeste 24 Sur 1.8 -- -- 89
2018-11-25 17:00:00 9 15 Sur 31 Sur 0.7 -- -- 85
2018-11-25 16:00:00 9.6 19 Sudoeste 25 Sudoeste 0 -- -- 78
2018-11-25 15:00:00 10.7 7 Sudeste 13 Sudeste 0 -- -- 74
2018-11-25 14:00:00 10.7 6 Sudeste 15 Este 0 -- -- 78
2018-11-25 13:00:00 10.2 10 Sudeste 17 Este 0 -- -- 80
2018-11-25 12:00:00 9.7 12 Sudeste 20 Sudeste 0 -- -- 86
2018-11-25 11:00:00 8.4 14 Sudeste 19 Sudeste 0 -- -- 90
2018-11-25 10:00:00 7 11 Sudeste 19 Sudeste 0 -- -- 90
2018-11-25 09:00:00 6.5 13 Sudeste 19 Sudeste 0 -- -- 90
2018-11-25 08:00:00 6.2 17 Sudeste 20 Sudeste 0 -- -- 90
2018-11-25 07:00:00 6.8 12 Sudeste 17 Sudeste 0 -- -- 90
2018-11-25 06:00:00 6.4 14 Sudeste 17 Sudeste 0 -- -- 90
2018-11-25 05:00:00 7 11 Sudeste 15 Sudeste 0 -- -- 90
2018-11-25 04:00:00 6.9 9 Este 16 Este 0 -- -- 90
2018-11-25 03:00:00 7.1 9 Este 24 Nordeste 0 -- -- 87
2018-11-25 02:00:00 8.9 15 Nordeste 26 Norte 0 -- -- 84
2018-11-25 01:00:00 8.8 22 Nordeste 32 Norte 0 -- -- 84
2018-11-25 00:00:00 9.1 24 Nordeste 39 Norte 0 -- -- 90
2018-11-24 23:00:00 9.1 28 Norte 41 Norte 0 -- -- 96
2018-11-24 22:00:00 9.1 28 Norte 42 Nordeste 0.1 -- -- 96
2018-11-24 21:00:00 9.6 37 Nordeste 51 Nordeste 0 -- -- 96
2018-11-24 20:00:00 9.7 47 Nordeste 59 Norte 1.3 -- -- 96
2018-11-24 19:00:00 10.3 53 Nordeste 63 Nordeste 6.5 -- -- 96
2018-11-24 18:00:00 10.8 34 Nordeste 45 Nordeste 14.5 -- -- 96
2018-11-24 17:00:00 10.9 13 Nordeste 31 Nordeste 9.8 -- -- 96
2018-11-24 16:00:00 11 16 Nordeste 27 Nordeste 33.8 -- -- 96
2018-11-24 15:00:00 11.4 5 Este 14 Sur 19.3 -- -- 96
2018-11-24 14:00:00 11.4 9 Sur 20 Sur 4.3 -- -- 96
2018-11-24 13:00:00 11.4 14 Sur 24 Sur 3 -- -- 96
2018-11-24 12:00:00 11.3 13 Sur 35 Sur 2 -- -- 96
2018-11-24 11:00:00 11.1 17 Sur 24 Sur 1.4 -- -- 94
2018-11-24 10:00:00 11 14 Sur 24 Sur 0.9 -- -- 94
2018-11-24 09:00:00 10.4 18 Sur 28 Sur 0.5 -- -- 94
2018-11-24 08:00:00 10.7 14 Sur 28 Sudoeste 0.8 -- -- 94
2018-11-24 07:00:00 11.3 19 Sudoeste 28 Sudoeste 0.1 -- -- 94
2018-11-24 06:00:00 11 17 Sur 33 Sudoeste 0.5 -- -- 94
2018-11-24 05:00:00 11.6 25 Sudoeste 37 Sudoeste 1 -- -- 93
2018-11-24 04:00:00 12.1 28 Sudoeste 37 Sudoeste 0 -- -- 86
2018-11-24 03:00:00 11.8 30 Sudoeste 37 Sudoeste 0 -- -- 82
2018-11-24 02:00:00 11.7 30 Sudoeste 40 Sudoeste 0 -- -- 85
2018-11-24 01:00:00 11.7 33 Sudoeste 44 Sudoeste 0 -- -- 86
2018-11-24 00:00:00 11.8 32 Sudoeste 43 Sudoeste 0 -- -- 84
2018-11-23 23:00:00 11.5 32 Sudoeste 108 Sudoeste 0 -- -- 89
2018-11-23 22:00:00 11.3 23 Sudoeste 37 Sudoeste 0 -- -- 93
2018-11-23 21:00:00 10.8 31 Sudoeste 51 Sudoeste 0 -- -- 92
2018-11-23 20:00:00 10.4 27 Sudoeste 57 Sudoeste 0.7 -- -- 93
2018-11-23 19:00:00 11.4 33 Sudoeste 50 Sudoeste 0.1 -- -- 90
2018-11-23 18:00:00 11.6 35 Sudoeste 48 Sudoeste 0 -- -- 85
2018-11-23 17:00:00 10.9 33 Sudoeste 54 Sudoeste 0 -- -- 86
2018-11-23 16:00:00 12 36 Sudoeste 49 Sudoeste 0 -- -- 76
2018-11-23 15:00:00 13.7 39 Sudoeste 50 Sudoeste 0 -- -- 74
2018-11-23 14:00:00 12.4 39 Sudoeste 52 Sudoeste 0 -- -- 81
2018-11-23 13:00:00 12.9 33 Sudoeste 46 Sudoeste 0 -- -- 79
2018-11-23 12:00:00 11.8 35 Sudoeste 43 Sudoeste 0 -- -- 80
2018-11-23 11:00:00 11 35 Sudoeste 46 Sudoeste 0.1 -- -- 84
2018-11-23 10:00:00 10.1 28 Sudoeste 44 Sudoeste 0.5 -- -- 93
2018-11-23 09:00:00 9.5 22 Sur 32 Sur 0 -- -- 93
2018-11-23 08:00:00 8.8 18 Sur 29 Sudoeste 0 -- -- 93
2018-11-23 07:00:00 8.4 11 Sur 27 Sudoeste 0.6 -- -- 93
2018-11-23 06:00:00 9.3 20 Sudoeste 30 Sudoeste 0.1 -- -- 92
2018-11-23 05:00:00 8.9 13 Sudoeste 29 Sudoeste 0 -- -- 92
2018-11-23 04:00:00 9 28 Oeste 42 Sudoeste 1.9 -- -- 92
2018-11-23 03:00:00 8.9 9 Sudoeste 28 Sur 0 -- -- 92
2018-11-23 02:00:00 8.3 19 Sur 30 Sur 0 -- -- 91
2018-11-23 01:00:00 8.1 17 Sur 22 Sur 0.1 -- -- 94
2018-11-23 00:00:00 8.8 15 Sudoeste 31 Sudoeste 0.2 -- -- 94
2018-11-22 23:00:00 9 12 Oeste 22 Oeste 0 -- -- 94
2018-11-22 22:00:00 9.2 16 Oeste 26 Oeste 0.2 -- -- 94
2018-11-22 21:00:00 9.2 12 Sur 21 Sudeste 0 -- -- 94
2018-11-22 20:00:00 9.2 5 Sudoeste 15 Oeste 0.1 -- -- 94
2018-11-22 19:00:00 9.1 13 Oeste 40 Oeste 1.4 -- -- 94
2018-11-22 18:00:00 9.8 22 Sudoeste 45 Sudoeste 3.6 -- -- 94
2018-11-22 17:00:00 10.9 15 Sur 27 Sur 0 -- -- 94
2018-11-22 16:00:00 11.3 18 Sur 28 Sur 0.1 -- -- 94
2018-11-22 15:00:00 10.7 15 Sur 31 Sur 0.9 -- -- 94
2018-11-22 14:00:00 10 19 Sur 47 Sudoeste 1.9 -- -- 94
2018-11-22 13:00:00 9.6 42 Sudoeste 59 Sudoeste 2.3 -- -- 93
2018-11-22 12:00:00 12.1 27 Sur 44 Sur 0.2 -- -- 92
2018-11-22 11:00:00 9.9 32 Sur 58 Sur 0.9 -- -- 90
2018-11-22 10:00:00 11.2 25 Sur 36 Sur 0.1 -- -- 93
2018-11-22 09:00:00 10.5 22 Sur 48 Sur 0 -- -- 93
2018-11-22 08:00:00 9.8 29 Sur 64 Sudoeste 0.9 -- -- 93
2018-11-22 07:00:00 9.5 26 Sur 60 Sur 0.7 -- -- 93
2018-11-22 06:00:00 10.1 26 Sudoeste 46 Sur 5.7 -- -- 93
2018-11-22 05:00:00 9.9 33 Sur 49 Sur 2.4 -- -- 90
2018-11-22 04:00:00 9.6 24 Sur 40 Sur 0.1 -- -- 90
2018-11-22 03:00:00 9.4 30 Sur 45 Sur 0 -- -- 90
2018-11-22 02:00:00 9.5 33 Sur 67 Sudoeste 0.9 -- -- 91
2018-11-22 01:00:00 11 39 Sudoeste 55 Sudoeste 0 -- -- 86
2018-11-22 00:00:00 10.5 34 Sudoeste 50 Sudoeste 0.2 -- -- 90
2018-11-21 23:00:00 9 26 Sudoeste 58 Sudoeste 1.4 -- -- 90
2018-11-21 22:00:00 10.1 27 Sur 50 Sudoeste 0 -- -- 87
2018-11-21 21:00:00 9.2 23 Sur 57 Sur 1.1 -- -- 90
2018-11-21 20:00:00 9.8 26 Sudoeste 53 Sudoeste 1.8 -- -- 86
2018-11-21 19:00:00 10.8 28 Sudoeste 49 Sudoeste 0 -- -- 77
2018-11-21 18:00:00 11.3 37 Sudoeste 53 Sudoeste 0 -- -- 76
2018-11-21 17:00:00 12.2 33 Sudoeste 53 Sudoeste 0 -- -- 76
2018-11-21 16:00:00 11.7 37 Sudoeste 50 Sudoeste 0 -- -- 77
2018-11-21 15:00:00 11.6 36 Sudoeste 51 Sudoeste 0.1 -- -- 81
2018-11-21 14:00:00 12.9 38 Sudoeste 50 Sudoeste 0 -- -- 80
2018-11-21 13:00:00 12.2 30 Sudoeste 47 Sudoeste 0.1 -- -- 88
2018-11-21 12:00:00 10.7 39 Sudoeste 51 Sudoeste 0.4 -- -- 91
2018-11-21 11:00:00 10.6 24 Sur 36 Sur 2.4 -- -- 94
2018-11-21 10:00:00 9.4 22 Sur 33 Sur 0 -- -- 94
2018-11-21 09:00:00 9.3 23 Sur 33 Sur 0.1 -- -- 94
2018-11-21 08:00:00 9.2 20 Sur 37 Sur 1.7 -- -- 92
2018-11-21 07:00:00 8.9 18 Sur 28 Sur 0 -- -- 92
2018-11-21 06:00:00 9.1 20 Sur 30 Sudeste 0.2 -- -- 83
2018-11-21 05:00:00 8.7 13 Sur 19 Sur 0 -- -- 81
2018-11-21 04:00:00 8.6 12 Sur 17 Sur 0 -- -- 84
2018-11-21 03:00:00 8.4 12 Sudeste 15 Sudeste 0 -- -- 83
2018-11-21 02:00:00 8.8 11 Sur 17 Sur 0 -- -- 79
2018-11-21 01:00:00 8.3 9 Sudeste 12 Sudeste 0 -- -- 84
2018-11-21 00:00:00 8.6 10 Sudeste 16 Este 0 -- -- 86
2018-11-20 23:00:00 8.5 13 Este 19 Este 0 -- -- 87
2018-11-20 22:00:00 8.5 14 Este 17 Este 0 -- -- 89
2018-11-20 21:00:00 8.8 13 Este 16 Este 0 -- -- 89
2018-11-20 20:00:00 9.3 10 Nordeste 19 Nordeste 0 -- -- 87
2018-11-20 19:00:00 9.4 14 Nordeste 22 Nordeste 0 -- -- 87
2018-11-20 18:00:00 9.6 11 Nordeste 32 Nordeste 0 -- -- 86
2018-11-20 17:00:00 10.1 28 Nordeste 40 Nordeste 0 -- -- 85
2018-11-20 16:00:00 10.4 30 Nordeste 44 Nordeste 0 -- -- 84
2018-11-20 15:00:00 11.1 37 Nordeste 44 Nordeste 0 -- -- 84
2018-11-20 14:00:00 11.2 38 Nordeste 52 Nordeste 0 -- -- 84
2018-11-20 13:00:00 11.5 39 Nordeste 46 Nordeste 0 -- -- 83
2018-11-20 12:00:00 11.3 24 Nordeste 36 Nordeste 0 -- -- 86
2018-11-20 11:00:00 10.8 22 Nordeste 39 Nordeste 0.1 -- -- 94
2018-11-20 10:00:00 10.2 22 Nordeste 43 Nordeste 0 -- -- 96
2018-11-20 09:00:00 9.7 31 Nordeste 54 Nordeste 0.4 -- -- 96
2018-11-20 08:00:00 10.3 44 Nordeste 54 Nordeste 1.2 -- -- 96
2018-11-20 07:00:00 11.3 30 Nordeste 36 Nordeste 1.2 -- -- 96
2018-11-20 06:00:00 11 6 Sudoeste 12 Sudoeste 0 -- -- 96
2018-11-20 05:00:00 11 10 Oeste 13 Oeste 0 -- -- 96
2018-11-20 04:00:00 11 12 Oeste 25 Oeste 0 -- -- 96
2018-11-20 03:00:00 11.3 13 Noroeste 22 Oeste 0 -- -- 96
2018-11-20 02:00:00 11.5 17 Oeste 22 Oeste 1.4 -- -- 96
2018-11-20 01:00:00 11.9 11 Oeste 21 Oeste 6.7 -- -- 96
2018-11-20 00:00:00 12.5 8 Oeste 16 Sudoeste 1.1 -- -- 96
2018-11-19 23:00:00 12.8 12 Sudoeste 15 Sudoeste 0 -- -- 94
2018-11-19 22:00:00 12.5 5 Sudoeste 9 Sur 0 -- -- 94
2018-11-19 21:00:00 12.7 4 Sur 6 Sur 0 -- -- 92
2018-11-19 20:00:00 13 3 Sur 5 Nordeste 0 -- -- 91
2018-11-19 19:00:00 12.7 0 Calma 10 Nordeste 0 -- -- 92
2018-11-19 18:00:00 13.1 5 Nordeste 15 Nordeste 0 -- -- 90
2018-11-19 17:00:00 13.6 5 Sur 12 Sudoeste 0 -- -- 87
2018-11-19 16:00:00 14.1 5 Sudoeste 8 Sudoeste 0 -- -- 84
2018-11-19 15:00:00 15.3 4 Noroeste 6 Noroeste 0 -- -- 80
2018-11-19 14:00:00 14.9 3 Nordeste 5 Nordeste 0 -- -- 83
2018-11-19 13:00:00 14.7 3 Norte 9 Este 0 -- -- 84
2018-11-19 12:00:00 14.6 8 Este 11 Este 0 -- -- 89
2018-11-19 11:00:00 13.8 8 Este 11 Este 0 -- -- 93
2018-11-19 10:00:00 12.9 8 Este 12 Sur 0 -- -- 93
2018-11-19 09:00:00 12.2 11 Sur 15 Sur 0 -- -- 93
2018-11-19 08:00:00 12.3 10 Sur 23 Sur 0 -- -- 93
2018-11-19 07:00:00 12.5 21 Sur 30 Sur 0 -- -- 92
2018-11-19 06:00:00 12.2 22 Sur 29 Sudeste 0 -- -- 92
2018-11-19 05:00:00 11.5 14 Sur 25 Sur 0 -- -- 90
2018-11-19 04:00:00 11.4 16 Sur 26 Este 0 -- -- 94
2018-11-19 03:00:00 10.6 17 Este 22 Este 0 -- -- 94
2018-11-19 02:00:00 10.9 12 Este 20 Nordeste 0 -- -- 94
2018-11-19 01:00:00 11.6 15 Nordeste 31 Nordeste 0 -- -- 94
2018-11-19 00:00:00 12 17 Nordeste 29 Nordeste 0 -- -- 93
2018-11-18 23:00:00 12 19 Nordeste 41 Nordeste 0 -- -- 92
2018-11-18 22:00:00 12.5 25 Nordeste 53 Nordeste 0 -- -- 92
2018-11-18 21:00:00 12.7 28 Nordeste 43 Nordeste 0 -- -- 92
2018-11-18 20:00:00 12.8 21 Nordeste 32 Nordeste 0 -- -- 92
2018-11-18 19:00:00 13 21 Nordeste 31 Nordeste 0 -- -- 92
2018-11-18 18:00:00 13.6 20 Nordeste 30 Norte 0 -- -- 90
2018-11-18 17:00:00 14 23 Nordeste 32 Nordeste 0 -- -- 90
2018-11-18 16:00:00 14.1 22 Nordeste 28 Nordeste 0 -- -- 91
2018-11-18 15:00:00 14.2 12 Nordeste 19 Nordeste 0.1 -- -- 90
2018-11-18 14:00:00 14.6 14 Nordeste 27 Nordeste 0 -- -- 83
2018-11-18 13:00:00 14.5 18 Nordeste 25 Nordeste 0 -- -- 81
2018-11-18 12:00:00 15 19 Nordeste 28 Nordeste 0 -- -- 76
2018-11-18 11:00:00 14.8 18 Nordeste 26 Nordeste 0 -- -- 74
2018-11-18 10:00:00 13.9 13 Nordeste 21 Nordeste 0 -- -- 82
2018-11-18 09:00:00 13.7 7 Nordeste 21 Nordeste 0 -- -- 81
2018-11-18 08:00:00 13.6 11 Nordeste 21 Nordeste 0 -- -- 80
2018-11-18 07:00:00 14.8 15 Este 24 Este 0 -- -- 65
2018-11-18 06:00:00 15.1 8 Este 22 Este 0 -- -- 61
2018-11-18 05:00:00 13.9 15 Este 22 Este 0 -- -- 68
2018-11-18 04:00:00 13.7 15 Este 22 Este 0 -- -- 68
2018-11-18 03:00:00 14.1 11 Este 19 Este 0 -- -- 67
2018-11-18 02:00:00 14.4 14 Este 21 Este 0 -- -- 67
2018-11-18 01:00:00 14.6 14 Este 22 Este 0 -- -- 67
2018-11-18 00:00:00 14.5 14 Este 19 Este 0 -- -- 70
2018-11-17 23:00:00 14.6 7 Este 21 Este 0 -- -- 68
2018-11-17 22:00:00 15.5 14 Este 31 Sudeste 0 -- -- 65
2018-11-17 21:00:00 16.5 15 Sudeste 26 Sudeste 0 -- -- 62
2018-11-17 20:00:00 15.3 13 Este 21 Este 0 -- -- 70
2018-11-17 19:00:00 15.4 12 Este 18 Este 0 -- -- 71
2018-11-17 18:00:00 16.4 6 Este 19 Este 0 -- -- 68
2018-11-17 17:00:00 18.5 13 Este 24 Este 0 -- -- 62
2018-11-17 16:00:00 19.4 12 Este 22 Este 0 -- -- 64
2018-11-17 15:00:00 18.1 12 Este 24 Este 0 -- -- 67
2018-11-17 14:00:00 17.6 15 Este 26 Este 0 -- -- 65
2018-11-17 13:00:00 17.7 14 Sudeste 26 Sudeste 0 -- -- 62
2018-11-17 12:00:00 16.9 18 Sudeste 31 Sudeste 0 -- -- 65
2018-11-17 11:00:00 15.9 19 Sudeste 32 Sudeste 0 -- -- 68
2018-11-17 10:00:00 15.1 19 Sudeste 28 Sudeste 0 -- -- 70
2018-11-17 09:00:00 14.5 14 Sudeste 32 Sudeste 0 -- -- 68
2018-11-17 08:00:00 15.6 16 Sudeste 30 Sur 0 -- -- 62
2018-11-17 07:00:00 16.1 23 Sur 31 Sur 0 -- -- 64
2018-11-17 06:00:00 14.4 15 Sudeste 25 Sudeste 0 -- -- 72
2018-11-17 05:00:00 14.8 16 Sudeste 28 Sur 0 -- -- 70
2018-11-17 04:00:00 16 18 Sudeste 32 Sur 0 -- -- 67
2018-11-17 03:00:00 15.6 22 Sur 32 Sudeste 0 -- -- 72
2018-11-17 02:00:00 14.5 18 Sudeste 28 Sudeste 0 -- -- 77
2018-11-17 01:00:00 14.8 19 Sudeste 26 Sudeste 0 -- -- 77
2018-11-17 00:00:00 14.5 17 Sudeste 27 Sudeste 0 -- -- 77
2018-11-16 23:00:00 14.8 15 Sudeste 25 Sur 0 -- -- 76
2018-11-16 22:00:00 14.9 15 Sudeste 24 Sur 0 -- -- 76
2018-11-16 21:00:00 15 16 Sur 23 Sur 0 -- -- 76
2018-11-16 20:00:00 14.4 15 Sur 26 Sudeste 0 -- -- 74
2018-11-16 19:00:00 15.6 18 Sur 26 Sur 0 -- -- 70
2018-11-16 18:00:00 15.9 13 Sur 26 Sudoeste 0 -- -- 70
2018-11-16 17:00:00 18.2 14 Sudoeste 24 Sur 0 -- -- 61
2018-11-16 16:00:00 19.8 18 Sur 31 Sur 0 -- -- 55
2018-11-16 15:00:00 20.4 22 Sur 35 Sur 0 -- -- 53
2018-11-16 14:00:00 20.5 24 Sur 35 Sur 0 -- -- 53
2018-11-16 13:00:00 20.4 20 Sur 27 Sur 0 -- -- 57
2018-11-16 12:00:00 19 10 Sudeste 20 Sudeste 0 -- -- 62
2018-11-16 11:00:00 17.3 14 Sudeste 24 Sudeste 0 -- -- 68
2018-11-16 10:00:00 15.6 14 Sudeste 24 Sudeste 0 -- -- 70
2018-11-16 09:00:00 15.4 18 Sudeste 28 Sur 0 -- -- 68
2018-11-16 08:00:00 15.6 19 Sudeste 28 Sur 0 -- -- 68
2018-11-16 07:00:00 15.5 19 Sur 26 Sudeste 0 -- -- 70
2018-11-16 06:00:00 14.9 17 Sudeste 23 Sudeste 0 -- -- 72
2018-11-16 05:00:00 15.8 17 Sudeste 26 Sudeste 0 -- -- 71
2018-11-16 04:00:00 14.9 19 Sudeste 26 Sudeste 0 -- -- 76
2018-11-16 03:00:00 15 15 Sudeste 22 Sudeste 0 -- -- 77
2018-11-16 02:00:00 14.9 10 Sudeste 17 Sudeste 0 -- -- 81
2018-11-16 01:00:00 15 13 Sudeste 17 Sur 0 -- -- 83
2018-11-16 00:00:00 13.9 6 Oeste 24 Sudeste 0 -- -- 84
2018-11-15 23:00:00 14.7 19 Sudeste 28 Este 0 -- -- 82
2018-11-15 22:00:00 14.2 13 Sudeste 20 Este 0 -- -- 83
2018-11-15 21:00:00 14.4 16 Este 24 Este 0 -- -- 80
2018-11-15 20:00:00 14.2 13 Este 21 Este 0 -- -- 85
2018-11-15 19:00:00 14.8 15 Este 18 Este 0 -- -- 82
2018-11-15 18:00:00 14.8 12 Este 14 Nordeste 0 -- -- 84
2018-11-15 17:00:00 15.3 9 Nordeste 15 Norte 0 -- -- 80
2018-11-15 16:00:00 17.4 6 Nordeste 9 Nordeste 0 -- -- 74
2018-11-15 15:00:00 17.2 5 Nordeste 8 Nordeste 0 -- -- 70
2018-11-15 14:00:00 17.1 6 Nordeste 13 Noroeste 0 -- -- 75
2018-11-15 13:00:00 19.1 4 Este 12 Sudeste 0 -- -- 74
2018-11-15 12:00:00 18 10 Sudeste 18 Sudeste 0 -- -- 74
2018-11-15 11:00:00 15 13 Sudeste 20 Sudeste 0 -- -- 80
2018-11-15 10:00:00 14.3 8 Nordeste 13 Este 0 -- -- 81
2018-11-15 09:00:00 14 4 Nordeste 8 Este 0 -- -- 76
2018-11-15 08:00:00 13.8 3 Nordeste 5 Nordeste 0 -- -- 76
2018-11-15 07:00:00 14.1 2 Oeste 7 Sudeste 0 -- -- 74
2018-11-15 06:00:00 15.1 6 Sur 19 Sur 0 -- -- 69
2018-11-15 05:00:00 14.6 18 Sur 27 Sur 0 -- -- 71
2018-11-15 04:00:00 14.6 16 Sur 18 Sur 0 -- -- 72
2018-11-15 03:00:00 14.7 12 Sur 15 Sur 0 -- -- 74
2018-11-15 02:00:00 14.3 8 Sur 18 Sudeste 0 -- -- 76
2018-11-15 01:00:00 14.5 14 Sudeste 19 Sudeste 0 -- -- 76
2018-11-15 00:00:00 14.6 11 Sudeste 19 Sur 0 -- -- 76
2018-11-14 23:00:00 14.4 14 Sudeste 18 Sudeste 0 -- -- 76
2018-11-14 22:00:00 13.8 15 Sudeste 20 Sudeste 0 -- -- 76
2018-11-14 21:00:00 14.3 13 Sudeste 15 Sudeste 0 -- -- 72
2018-11-14 20:00:00 15.1 13 Sudeste 21 Sur 0 -- -- 68
2018-11-14 19:00:00 15.4 15 Sur 24 Sudeste 0 -- -- 65
2018-11-14 18:00:00 16.3 12 Sur 18 Sur 0 -- -- 59
2018-11-14 17:00:00 18.4 14 Sur 22 Sur 0 -- -- 55
2018-11-14 16:00:00 18.8 14 Sur 28 Sur 0 -- -- 55
2018-11-14 15:00:00 18.8 22 Sur 35 Sur 0 -- -- 53
2018-11-14 14:00:00 18.8 20 Sur 30 Sur 0 -- -- 56
2018-11-14 13:00:00 18.3 13 Sur 18 Sur 0 -- -- 63
2018-11-14 12:00:00 16.6 14 Sur 23 Sur 0 -- -- 68
2018-11-14 11:00:00 14.7 13 Sur 19 Sur 0 -- -- 76
2018-11-14 10:00:00 12.3 14 Sur 25 Sur 0 -- -- 78
2018-11-14 09:00:00 11.7 21 Sur 25 Sur 0 -- -- 76
2018-11-14 08:00:00 11.2 18 Sur 23 Sudeste 0 -- -- 74
2018-11-14 07:00:00 11.1 16 Sur 20 Sur 0 -- -- 71
2018-11-14 06:00:00 11 11 Sur 16 Sur 0 -- -- 66
2018-11-14 05:00:00 11.4 13 Sur 18 Sur 0 -- -- 66
2018-11-14 04:00:00 9.4 12 Sudeste 15 Sudeste 0 -- -- 72
2018-11-14 03:00:00 9.5 10 Sudeste 14 Sudeste 0 -- -- 76
2018-11-14 02:00:00 9.9 9 Sudeste 14 Sudeste 0 -- -- 78
2018-11-14 01:00:00 9.3 11 Sudeste 14 Sudeste 0 -- -- 80
2018-11-14 00:00:00 9.5 10 Sudeste 14 Sudeste 0 -- -- 80
2018-11-13 23:00:00 9.9 8 Sudeste 10 Sudeste 0 -- -- 80
2018-11-13 22:00:00 10.2 0 Calma 13 Sudeste 0 -- -- 86
2018-11-13 21:00:00 10.4 5 Sudeste 10 Sudeste 0 -- -- 84
2018-11-13 20:00:00 12.1 3 Sur 4 Sur 0 -- -- 79
2018-11-13 19:00:00 11.8 0 Calma 4 Norte 0 -- -- 84
2018-11-13 18:00:00 12.8 3 Nordeste 6 Norte 0 -- -- 81
2018-11-13 17:00:00 13.6 5 Norte 9 Norte 0 -- -- 79
2018-11-13 16:00:00 14.1 7 Norte 12 Nordeste 0 -- -- 80
2018-11-13 15:00:00 13.9 8 Nordeste 13 Nordeste 0 -- -- 80
2018-11-13 14:00:00 13.7 9 Norte 11 Norte 0 -- -- 76
2018-11-13 13:00:00 13.8 8 Nordeste 10 Norte 0 -- -- 76
2018-11-13 12:00:00 13.1 4 Norte 7 Nordeste 0 -- -- 80
2018-11-13 11:00:00 12.4 2 Norte 17 Sudeste 0 -- -- 84
2018-11-13 10:00:00 9.6 11 Este 18 Este 0 -- -- 92
2018-11-13 09:00:00 8.1 17 Sudeste 20 Sudeste 0 -- -- 93
2018-11-13 08:00:00 7.8 13 Sudeste 17 Sudeste 0 -- -- 91
2018-11-13 07:00:00 8.3 15 Sudeste 23 Sudeste 0 -- -- 92
2018-11-13 06:00:00 8.5 9 Sudeste 15 Sudeste 0 -- -- 92
2018-11-13 05:00:00 8.8 14 Sudeste 20 Sudeste 0 -- -- 93
2018-11-13 04:00:00 8.7 15 Sudeste 17 Sudeste 0 -- -- 93
2018-11-13 03:00:00 9.3 12 Sudeste 16 Sudeste 0 -- -- 93
2018-11-13 02:00:00 9.4 11 Sudeste 14 Sudeste 0 -- -- 93
2018-11-13 01:00:00 9.9 9 Sudeste 18 Sudeste 0 -- -- 93
2018-11-13 00:00:00 10.1 14 Sudeste 17 Sudeste 0 -- -- 94
2018-11-12 23:00:00 9.9 13 Sudeste 15 Sudeste 0 -- -- 94
2018-11-12 22:00:00 10 13 Sudeste 14 Sudeste 0 -- -- 91
2018-11-12 21:00:00 11.3 5 Sur 10 Sudoeste 0 -- -- 91
2018-11-12 20:00:00 11.3 7 Sudoeste 12 Sudoeste 0 -- -- 91
2018-11-12 19:00:00 11.3 9 Sur 14 Sudoeste 0 -- -- 91
2018-11-12 18:00:00 12.6 12 Sudoeste 16 Sudoeste 0 -- -- 84
2018-11-12 17:00:00 14.3 13 Sudoeste 19 Sudoeste 0 -- -- 80
2018-11-12 16:00:00 14.3 14 Sudoeste 19 Sudoeste 0 -- -- 85
2018-11-12 15:00:00 14 14 Sur 27 Sudoeste 0 -- -- 95
2018-11-12 14:00:00 12.1 21 Sudoeste 30 Sudoeste 0.9 -- -- 95
2018-11-12 13:00:00 12.8 18 Sudoeste 30 Sudoeste 0.3 -- -- 94
2018-11-12 12:00:00 12.7 19 Sur 26 Sur 0.5 -- -- 91
2018-11-12 11:00:00 13.3 15 Sur 19 Sur 0 -- -- 92
2018-11-12 10:00:00 11.2 14 Sur 16 Sur 0 -- -- 93
2018-11-12 09:00:00 10.6 12 Sur 23 Sur 0 -- -- 94
2018-11-12 08:00:00 10.4 19 Sur 26 Sur 0 -- -- 95
2018-11-12 07:00:00 10.5 20 Sur 30 Sur 0 -- -- 95
2018-11-12 06:00:00 10.7 22 Sur 28 Sur 0 -- -- 95
2018-11-12 05:00:00 10.8 21 Sur 27 Sur 0 -- -- 94
2018-11-12 04:00:00 10.3 15 Sur 22 Sur 0 -- -- 93
2018-11-12 03:00:00 10.3 16 Sur 21 Sur 0 -- -- 93
2018-11-12 02:00:00 10.5 18 Sur 22 Sur 0 -- -- 94
2018-11-12 01:00:00 10.8 15 Sur 21 Sur 0 -- -- 93
2018-11-12 00:00:00 11.1 17 Sur 22 Sur 0 -- -- 93
2018-11-11 23:00:00 11.2 14 Sur 18 Sur 0 -- -- 92
2018-11-11 22:00:00 11.5 13 Sur 16 Sur 0 -- -- 92
2018-11-11 21:00:00 11.6 11 Sur 14 Sur 0 -- -- 91
2018-11-11 20:00:00 11.8 13 Sudoeste 18 Sudoeste 0 -- -- 93
2018-11-11 19:00:00 12.1 14 Sudoeste 18 Sudoeste 0 -- -- 91
2018-11-11 18:00:00 12.5 15 Sudoeste 25 Sudoeste 0 -- -- 88
2018-11-11 17:00:00 13.3 17 Sudoeste 25 Sudoeste 0 -- -- 88
2018-11-11 16:00:00 13.7 18 Sudoeste 25 Sudoeste 0 -- -- 88
2018-11-11 15:00:00 13.9 20 Sudoeste 32 Sudoeste 0 -- -- 87
2018-11-11 14:00:00 13.4 19 Sudoeste 28 Sudoeste 0 -- -- 91
2018-11-11 13:00:00 13.2 21 Sudoeste 33 Sudoeste 0 -- -- 91
2018-11-11 12:00:00 13.3 26 Sudoeste 36 Sudoeste 0 -- -- 91
2018-11-11 11:00:00 12.9 25 Sudoeste 34 Sudoeste 0 -- -- 91
2018-11-11 10:00:00 12.3 26 Sudoeste 36 Sudoeste 0 -- -- 92
2018-11-11 09:00:00 12.3 30 Sudoeste 44 Sudoeste 0 -- -- 91
2018-11-11 08:00:00 12.7 29 Sudoeste 42 Sudoeste 0 -- -- 94
2018-11-11 07:00:00 12.7 32 Sudoeste 39 Sudoeste 0 -- -- 95
2018-11-11 06:00:00 12.9 26 Sudoeste 60 Sudoeste 0 -- -- 95
2018-11-11 05:00:00 13.9 43 Sudoeste 62 Sudoeste 0.1 -- -- 97
2018-11-11 04:00:00 14 45 Sudoeste 62 Sudoeste 0 -- -- 94
2018-11-11 03:00:00 14.6 46 Sudoeste 69 Sudoeste 0 -- -- 93
2018-11-11 02:00:00 14.3 51 Sudoeste 69 Sudoeste 0 -- -- 95
2018-11-11 01:00:00 14.2 43 Sudoeste 65 Sudoeste 0 -- -- 95
2018-11-11 00:00:00 14.3 46 Sudoeste 67 Sudoeste 0 -- -- 95
2018-11-10 23:00:00 14.5 49 Sudoeste 66 Sudoeste 0 -- -- 95
2018-11-10 22:00:00 14.9 49 Sudoeste 74 Sudoeste 0 -- -- 96
2018-11-10 21:00:00 14.7 56 Sudoeste 76 Sudoeste 0 -- -- 94
2018-11-10 20:00:00 14.6 51 Sudoeste 74 Sur 0 -- -- 94
2018-11-10 19:00:00 14.5 51 Sudoeste 73 Sudoeste 0 -- -- 94
2018-11-10 18:00:00 14.8 52 Sudoeste 69 Sudoeste 0 -- -- 93
2018-11-10 17:00:00 15 50 Sudoeste 72 Sudoeste 0 -- -- 91
2018-11-10 16:00:00 15.2 46 Sudoeste 66 Sudoeste 0 -- -- 90
2018-11-10 15:00:00 15.6 47 Sudoeste 64 Sudoeste 0 -- -- 91
2018-11-10 14:00:00 15.3 50 Sudoeste 66 Sudoeste 0 -- -- 91
2018-11-10 13:00:00 15.2 41 Sudoeste 51 Sudoeste 0 -- -- 97
2018-11-10 12:00:00 14.1 38 Sudoeste 53 Sudoeste 0 -- -- 97
2018-11-10 11:00:00 13.4 40 Sudoeste 54 Sudoeste 0.1 -- -- 97
2018-11-10 10:00:00 12.6 43 Sudoeste 71 Sudoeste 1.3 -- -- 97
2018-11-10 09:00:00 13.3 40 Sur 55 Sur 0.5 -- -- 97
2018-11-10 08:00:00 13.8 36 Sur 52 Sudoeste 0 -- -- 97
2018-11-10 07:00:00 13.2 37 Sudoeste 50 Sudoeste 0 -- -- 98
2018-11-10 06:00:00 12.9 37 Sudoeste 50 Sudoeste 0 -- -- 98
2018-11-10 05:00:00 12.9 39 Sudoeste 55 Sudoeste 0 -- -- 98
2018-11-10 04:00:00 13 39 Sudoeste 58 Sudoeste 0.1 -- -- 98
2018-11-10 03:00:00 13 43 Sudoeste 57 Sudoeste 7 -- -- 98
2018-11-10 02:00:00 12.1 39 Sudoeste 53 Sudoeste 2 -- -- 98
2018-11-10 01:00:00 13.5 39 Sudoeste 54 Sudoeste 0 -- -- 98
2018-11-10 00:00:00 12.7 43 Sudoeste 60 Sur 0.3 -- -- 98